createdAt,value
2019-05-20T00:01:31.758Z,7.90
2019-05-20T00:04:22.139Z,7.17
2019-05-20T00:07:04.730Z,8.23
2019-05-20T00:09:55.118Z,7.93
2019-05-20T00:12:38.468Z,8.30
2019-05-20T00:15:28.851Z,8.57
2019-05-20T00:18:12.039Z,8.40
2019-05-20T00:21:02.345Z,8.30
2019-05-20T00:23:45.830Z,8.03
2019-05-20T00:26:36.146Z,7.73
2019-05-20T00:29:19.479Z,8.37
2019-05-20T00:32:09.786Z,8.53
2019-05-20T00:35:13.322Z,9.13
2019-05-20T00:38:03.686Z,8.33
2019-05-20T00:40:46.915Z,9.13
2019-05-20T00:47:05.302Z,8.63
2019-05-20T00:49:55.661Z,8.77
2019-05-20T00:52:46.006Z,8.13
2019-05-20T00:55:29.729Z,8.90
2019-05-20T01:01:21.904Z,10.70
2019-05-20T01:04:12.265Z,11.23
2019-05-20T01:06:55.838Z,10.93
2019-05-20T01:09:46.221Z,11.17
2019-05-20T01:12:29.340Z,10.90
2019-05-20T01:15:19.928Z,10.10
2019-05-20T01:18:03.379Z,11.03
2019-05-20T01:23:56.110Z,10.73
2019-05-20T01:26:46.506Z,11.60
2019-05-20T01:29:29.650Z,12.57
2019-05-20T01:32:20.048Z,12.57
2019-05-20T01:35:03.352Z,13.30
2019-05-20T01:37:53.744Z,12.77
2019-05-20T01:40:36.540Z,13.03
2019-05-20T01:43:26.965Z,13.70
2019-05-20T01:46:10.430Z,13.87
2019-05-20T01:49:00.849Z,14.70
2019-05-20T01:51:43.473Z,14.63
2019-05-20T01:54:33.902Z,14.63
2019-05-20T01:57:17.190Z,14.93
2019-05-20T02:00:28.094Z,15.03
2019-05-20T02:03:31.075Z,15.57
2019-05-20T02:06:22.795Z,14.97
2019-05-20T02:09:13.187Z,15.27
2019-05-20T02:11:56.502Z,15.53
2019-05-20T02:18:07.728Z,16.63
2019-05-20T02:20:51.118Z,17.60
2019-05-20T02:23:41.532Z,17.23
2019-05-20T02:26:24.350Z,17.87
2019-05-20T02:29:14.750Z,18.70
2019-05-20T02:31:57.538Z,18.27
2019-05-20T02:34:48.166Z,19.70
2019-05-20T02:37:30.763Z,20.80
2019-05-20T02:40:21.187Z,22.17
2019-05-20T02:43:03.756Z,22.73
2019-05-20T02:45:54.150Z,22.00
2019-05-20T02:48:38.518Z,24.53
2019-05-20T02:51:47.797Z,25.20
2019-05-20T02:54:31.403Z,24.77
2019-05-20T02:57:21.822Z,26.97
2019-05-20T03:00:05.221Z,28.33
2019-05-20T03:02:55.617Z,27.97
2019-05-20T03:05:39.070Z,28.93
2019-05-20T03:08:29.487Z,28.80
2019-05-20T03:11:13.039Z,31.53
2019-05-20T03:14:03.559Z,32.00
2019-05-20T03:16:47.042Z,33.73
2019-05-20T03:19:37.491Z,32.47
2019-05-20T03:22:20.805Z,34.17
2019-05-20T03:25:11.283Z,36.13
2019-05-20T03:27:54.522Z,36.47
2019-05-20T03:30:45.307Z,38.10
2019-05-20T03:33:28.226Z,37.10
2019-05-20T03:36:18.737Z,38.87
2019-05-20T03:39:01.801Z,38.70
2019-05-20T03:41:52.185Z,37.10
2019-05-20T03:44:35.513Z,38.37
2019-05-20T03:47:25.881Z,37.07
2019-05-20T03:50:09.204Z,37.33
2019-05-20T03:53:13.483Z,33.27
2019-05-20T03:56:06.450Z,34.47
2019-05-20T03:58:56.905Z,34.87
2019-05-20T04:01:40.753Z,34.90
2019-05-20T04:04:31.181Z,34.83
2019-05-20T04:07:14.406Z,36.83
2019-05-20T04:10:05.151Z,36.73
2019-05-20T04:12:48.017Z,38.67
2019-05-20T04:15:38.413Z,40.10
2019-05-20T04:18:21.458Z,40.70
2019-05-20T04:21:04.269Z,42.27
2019-05-20T04:23:54.716Z,43.57
2019-05-20T04:26:37.551Z,43.47
2019-05-20T04:29:28.034Z,43.30
2019-05-20T04:32:11.630Z,47.07
2019-05-20T04:35:19.829Z,46.67
2019-05-20T04:38:06.328Z,46.20
2019-05-20T04:40:56.710Z,44.87
2019-05-20T04:43:39.518Z,43.00
2019-05-20T04:46:29.941Z,41.67
2019-05-20T04:49:14.721Z,40.80
2019-05-20T04:52:05.156Z,40.63
2019-05-20T04:54:50.229Z,41.37
2019-05-20T04:57:40.768Z,42.23
2019-05-20T05:04:13.337Z,38.87
2019-05-20T05:06:56.853Z,41.63
2019-05-20T05:09:47.215Z,40.20
2019-05-20T05:12:34.135Z,41.80
2019-05-20T05:31:51.808Z,39.50
2019-05-20T05:44:57.435Z,37.90
2019-05-20T05:47:40.112Z,37.00
2019-05-20T05:53:48.778Z,35.80
2019-05-20T05:56:58.432Z,35.20
2019-05-20T05:59:41.310Z,36.17
2019-05-20T06:02:24.919Z,34.50
2019-05-20T06:05:15.411Z,34.83
2019-05-20T06:07:58.110Z,34.50
2019-05-20T06:10:48.491Z,32.93
2019-05-20T06:13:31.181Z,33.43
2019-05-20T06:16:36.079Z,33.53
2019-05-20T06:19:26.179Z,36.40
2019-05-20T06:22:16.639Z,34.57
2019-05-20T06:24:59.807Z,35.07
2019-05-20T06:27:50.187Z,33.77
2019-05-20T06:30:37.830Z,36.27
2019-05-20T06:33:31.704Z,34.37
2019-05-20T06:36:26.398Z,34.77
2019-05-20T06:40:02.913Z,33.93
2019-05-20T06:42:52.661Z,35.00
2019-05-20T06:45:43.065Z,34.33
2019-05-20T06:48:26.311Z,35.67
2019-05-20T06:51:16.696Z,34.03
2019-05-20T06:53:59.307Z,33.30
2019-05-20T06:56:49.799Z,34.17
2019-05-20T06:59:32.686Z,33.03
2019-05-20T07:02:15.565Z,31.50
2019-05-20T07:08:34.776Z,34.60
2019-05-20T07:11:25.198Z,33.20
2019-05-20T07:14:08.571Z,35.53
2019-05-20T07:16:59.013Z,38.60
2019-05-20T07:19:45.096Z,39.53
2019-05-20T07:23:02.737Z,38.87
2019-05-20T07:26:00.035Z,40.20
2019-05-20T07:28:50.480Z,38.23
2019-05-20T07:31:34.539Z,39.10
2019-05-20T07:34:24.962Z,40.80
2019-05-20T07:37:08.392Z,41.67
2019-05-20T07:39:58.830Z,40.00
2019-05-20T07:42:41.513Z,37.87
2019-05-20T07:45:57.032Z,37.57
2019-05-20T07:48:40.521Z,38.27
2019-05-20T07:55:00.476Z,38.70
2019-05-20T07:58:14.764Z,36.00
2019-05-20T08:00:57.463Z,34.30
2019-05-20T08:03:47.938Z,36.43
2019-05-20T08:06:31.190Z,38.47
2019-05-20T08:09:21.633Z,37.10
2019-05-20T08:12:04.843Z,35.00
2019-05-20T08:14:55.249Z,32.50
2019-05-20T08:17:38.129Z,33.90
2019-05-20T08:20:28.536Z,34.63
2019-05-20T08:23:11.661Z,34.30
2019-05-20T08:26:02.059Z,32.23
2019-05-20T08:28:44.716Z,29.87
2019-05-20T08:31:35.101Z,28.80
2019-05-20T08:34:18.224Z,30.67
2019-05-20T08:37:08.624Z,31.00
2019-05-20T08:39:51.321Z,35.30
2019-05-20T08:42:41.727Z,34.90
2019-05-20T08:45:25.921Z,33.53
2019-05-20T08:47:57.247Z,32.27
2019-05-20T08:50:47.606Z,32.03
2019-05-20T08:53:30.713Z,31.23
2019-05-20T08:56:21.114Z,29.83
2019-05-20T08:59:03.729Z,29.17
2019-05-20T09:01:46.606Z,30.77
2019-05-20T09:04:36.997Z,32.57
2019-05-20T09:07:19.613Z,34.67
2019-05-20T09:10:10.192Z,32.03
2019-05-20T09:12:53.098Z,31.33
2019-05-20T09:15:45.423Z,30.73
2019-05-20T09:18:48.393Z,30.53
2019-05-20T09:21:38.790Z,31.43
2019-05-20T09:24:23.638Z,31.47
2019-05-20T09:27:13.995Z,30.87
2019-05-20T09:29:57.528Z,31.50
2019-05-20T09:32:48.038Z,31.10
2019-05-20T09:35:31.170Z,32.07
2019-05-20T09:38:21.657Z,31.80
2019-05-20T09:41:04.904Z,32.10
2019-05-20T09:43:55.327Z,31.50
2019-05-20T09:46:38.065Z,32.73
2019-05-20T09:49:28.491Z,34.37
2019-05-20T09:52:11.998Z,34.57
2019-05-20T09:55:02.501Z,33.83
2019-05-20T09:57:45.331Z,31.57
2019-05-20T10:00:35.825Z,31.70
2019-05-20T10:03:18.400Z,31.33
2019-05-20T10:06:09.045Z,30.67
2019-05-20T10:09:13.036Z,32.67
2019-05-20T10:12:03.444Z,34.00
2019-05-20T10:14:46.168Z,33.30
2019-05-20T10:17:36.568Z,33.50
2019-05-20T10:20:19.761Z,32.17
2019-05-20T10:23:10.147Z,31.37
2019-05-20T10:25:52.811Z,30.87
2019-05-20T10:28:47.175Z,31.37
2019-05-20T10:31:47.298Z,29.93
2019-05-20T10:34:37.918Z,29.10
2019-05-20T10:37:20.602Z,27.83
2019-05-20T10:43:40.282Z,25.37
2019-05-20T10:46:30.649Z,27.93
2019-05-20T10:49:13.150Z,26.97
2019-05-20T10:52:05.364Z,26.93
2019-05-20T10:55:08.803Z,27.37
2019-05-20T10:57:59.196Z,26.67
2019-05-20T11:01:01.795Z,25.87
2019-05-20T11:03:54.601Z,26.17
2019-05-20T11:06:44.991Z,26.37
2019-05-20T11:09:28.302Z,27.27
2019-05-20T11:12:18.671Z,27.93
2019-05-20T11:15:02.565Z,26.80
2019-05-20T11:17:53.167Z,26.03
2019-05-20T11:20:35.908Z,25.10
2019-05-20T11:23:26.263Z,24.93
2019-05-20T11:26:11.184Z,25.57
2019-05-20T11:29:01.598Z,25.07
2019-05-20T11:32:10.492Z,25.23
2019-05-20T11:34:59.002Z,24.40
2019-05-20T11:37:43.063Z,25.33
2019-05-20T11:40:53.408Z,24.57
2019-05-20T11:43:46.424Z,25.60
2019-05-20T11:46:39.139Z,25.07
2019-05-20T11:49:22.457Z,23.77
2019-05-20T11:52:12.805Z,24.73
2019-05-20T11:54:56.204Z,23.67
2019-05-20T11:57:46.650Z,23.77
2019-05-20T12:00:30.155Z,24.00
2019-05-20T12:03:20.543Z,24.63
2019-05-20T12:06:04.318Z,23.77
2019-05-20T12:08:55.008Z,24.00
2019-05-20T12:11:38.175Z,24.83
2019-05-20T12:14:28.612Z,23.80
2019-05-20T12:17:12.181Z,24.10
2019-05-20T12:20:03.826Z,24.87
2019-05-20T12:23:07.357Z,22.70
2019-05-20T12:25:57.768Z,24.97
2019-05-20T12:28:40.763Z,23.13
2019-05-20T12:31:31.192Z,24.37
2019-05-20T12:34:14.151Z,25.50
2019-05-20T12:37:04.656Z,24.97
2019-05-20T12:40:06.421Z,25.00
2019-05-20T12:43:00.657Z,24.73
2019-05-20T12:45:51.067Z,24.07
2019-05-20T12:48:34.337Z,23.90
2019-05-20T12:51:24.790Z,25.40
2019-05-20T12:54:07.667Z,24.93
2019-05-20T12:56:58.141Z,25.13
2019-05-20T12:59:41.572Z,24.27
2019-05-20T13:02:31.960Z,25.63
2019-05-20T13:05:15.618Z,24.47
2019-05-20T13:08:06.048Z,26.80
2019-05-20T13:10:49.353Z,26.10
2019-05-20T13:13:39.703Z,25.90
2019-05-20T13:16:22.916Z,26.23
2019-05-20T13:19:13.347Z,25.97
2019-05-20T13:22:03.868Z,27.33
2019-05-20T13:24:46.838Z,27.90
2019-05-20T13:27:37.196Z,25.47
2019-05-20T13:30:21.001Z,27.20
2019-05-20T13:33:11.367Z,28.60
2019-05-20T13:36:01.759Z,29.13
2019-05-20T13:38:44.704Z,29.40
2019-05-20T13:41:35.117Z,30.17
2019-05-20T13:44:17.673Z,29.30
2019-05-20T13:47:08.058Z,31.07
2019-05-20T13:49:50.838Z,31.00
2019-05-20T13:52:41.241Z,29.83
2019-05-20T13:55:24.031Z,29.93
2019-05-20T13:58:14.386Z,30.70
2019-05-20T14:00:57.184Z,30.80
2019-05-20T14:03:47.574Z,30.57
2019-05-20T14:06:30.947Z,30.07
2019-05-20T14:09:21.340Z,31.10
2019-05-20T14:12:24.630Z,30.30
2019-05-20T14:15:15.234Z,30.40
2019-05-20T14:17:58.535Z,30.60
2019-05-20T14:20:48.859Z,29.77
2019-05-20T14:23:31.905Z,29.67
2019-05-20T14:29:28.963Z,28.80
2019-05-20T14:32:19.340Z,28.63
2019-05-20T14:35:02.878Z,28.20
2019-05-20T14:37:53.272Z,28.70
2019-05-20T14:40:35.882Z,29.50
2019-05-20T14:43:26.362Z,28.97
2019-05-20T14:46:09.948Z,28.20
2019-05-20T14:49:02.530Z,28.93
2019-05-20T14:52:05.323Z,26.77
2019-05-20T14:54:55.878Z,27.93
2019-05-20T14:57:38.571Z,27.73
2019-05-20T15:00:28.948Z,26.30
2019-05-20T15:03:12.245Z,25.07
2019-05-20T15:06:02.665Z,26.30
2019-05-20T15:08:45.412Z,25.87
2019-05-20T15:11:38.569Z,27.00
2019-05-20T15:14:42.513Z,26.93
2019-05-20T15:17:32.429Z,27.53
2019-05-20T15:20:15.283Z,27.17
2019-05-20T15:23:05.644Z,26.90
2019-05-20T15:25:48.736Z,26.83
2019-05-20T15:28:39.158Z,28.23
2019-05-20T15:31:22.467Z,27.13
2019-05-20T15:33:53.845Z,26.27
2019-05-20T15:36:44.351Z,26.00
2019-05-20T15:39:34.761Z,26.33
2019-05-20T15:42:17.325Z,25.37
2019-05-20T15:48:37.410Z,24.20
2019-05-20T15:51:27.814Z,25.63
2019-05-20T15:54:18.235Z,24.03
2019-05-20T15:57:01.337Z,23.83
2019-05-20T15:59:51.727Z,24.90
2019-05-20T16:02:34.574Z,24.33
2019-05-20T16:05:25.024Z,24.63
2019-05-20T16:08:08.497Z,25.50
2019-05-20T16:10:58.910Z,24.77
2019-05-20T16:13:41.423Z,23.57
2019-05-20T16:16:31.829Z,24.20
2019-05-20T16:19:14.428Z,24.03
2019-05-20T16:22:04.840Z,23.53
2019-05-20T16:24:47.839Z,25.40
2019-05-20T16:27:38.225Z,24.43
2019-05-20T16:30:22.727Z,24.87
2019-05-20T16:33:05.606Z,24.97
2019-05-20T16:35:56.830Z,26.30
2019-05-20T16:38:39.992Z,24.07
2019-05-20T16:41:31.926Z,24.73
2019-05-20T16:44:14.604Z,25.43
2019-05-20T16:47:05.086Z,25.43
2019-05-20T16:49:48.298Z,24.97
2019-05-20T16:52:38.694Z,25.63
2019-05-20T16:55:22.035Z,26.17
2019-05-20T16:58:13.250Z,26.23
2019-05-20T17:00:56.192Z,25.93
2019-05-20T17:03:46.612Z,27.10
2019-05-20T17:06:29.932Z,25.53
2019-05-20T17:09:20.270Z,27.23
2019-05-20T17:12:03.144Z,24.53
2019-05-20T17:14:53.472Z,26.73
2019-05-20T17:17:36.744Z,25.07
2019-05-20T17:20:27.160Z,25.03
2019-05-20T17:23:10.247Z,25.57
2019-05-20T17:26:00.644Z,24.10
2019-05-20T17:28:44.071Z,24.13
2019-05-20T17:31:34.550Z,26.23
2019-05-20T17:34:19.651Z,27.10
2019-05-20T17:37:22.439Z,27.43
2019-05-20T17:40:15.205Z,27.27
2019-05-20T17:43:05.636Z,27.50
2019-05-20T17:45:48.878Z,27.13
2019-05-20T17:48:39.217Z,27.87
2019-05-20T17:51:22.547Z,28.43
2019-05-20T17:54:05.638Z,28.60
2019-05-20T17:56:56.031Z,28.57
2019-05-20T17:59:39.292Z,27.80
2019-05-20T18:02:29.707Z,29.37
2019-05-20T18:05:14.777Z,29.07
2019-05-20T18:08:04.867Z,29.57
2019-05-20T18:10:47.831Z,30.03
2019-05-20T18:13:38.341Z,27.27
2019-05-20T18:16:21.942Z,28.27
2019-05-20T18:19:12.419Z,29.50
2019-05-20T18:21:55.121Z,29.30
2019-05-20T18:24:45.579Z,30.50
2019-05-20T18:27:28.373Z,29.33
2019-05-20T18:33:54.663Z,29.07
2019-05-20T18:36:37.654Z,30.23
2019-05-20T18:39:20.284Z,30.97
2019-05-20T18:42:10.699Z,30.90
2019-05-20T18:44:53.869Z,31.00
2019-05-20T18:47:44.329Z,28.87
2019-05-20T18:50:27.939Z,27.10
2019-05-20T18:53:18.385Z,27.13
2019-05-20T18:56:01.750Z,27.53
2019-05-20T18:58:52.304Z,26.33
2019-05-20T19:01:55.752Z,25.37
2019-05-20T19:04:47.176Z,27.10
2019-05-20T19:07:37.599Z,25.33
2019-05-20T19:10:20.554Z,25.43
2019-05-20T19:13:10.931Z,25.10
2019-05-20T19:15:53.657Z,25.67
2019-05-20T19:18:44.098Z,24.80
2019-05-20T19:21:27.151Z,24.07
2019-05-20T19:24:17.704Z,24.07
2019-05-20T19:27:02.475Z,23.40
2019-05-20T19:29:52.868Z,23.57
2019-05-20T19:32:35.796Z,22.53
2019-05-20T19:35:26.191Z,21.00
2019-05-20T19:38:09.353Z,21.30
2019-05-20T19:40:59.725Z,21.00
2019-05-20T19:43:42.986Z,19.13
2019-05-20T19:46:33.359Z,20.73
2019-05-20T19:49:16.012Z,19.83
2019-05-20T19:52:06.377Z,19.43
2019-05-20T19:54:49.365Z,19.07
2019-05-20T19:57:39.830Z,19.37
2019-05-20T20:00:22.650Z,19.53
2019-05-20T20:03:13.134Z,19.70
2019-05-20T20:05:56.483Z,18.60
2019-05-20T20:08:46.958Z,19.50
2019-05-20T20:11:30.555Z,19.27
2019-05-20T20:14:20.981Z,19.23
2019-05-20T20:17:04.131Z,18.73
2019-05-20T20:19:58.103Z,19.73
2019-05-20T20:22:59.915Z,21.07
2019-05-20T20:25:50.520Z,20.97
2019-05-20T20:28:33.974Z,21.77
2019-05-20T20:31:24.378Z,19.87
2019-05-20T20:34:07.124Z,21.57
2019-05-20T20:36:50.185Z,20.83
2019-05-20T20:39:40.658Z,22.30
2019-05-20T20:42:23.849Z,20.57
2019-05-20T20:45:14.938Z,21.73
2019-05-20T20:47:58.017Z,20.53
2019-05-20T20:53:57.311Z,22.43
2019-05-20T20:56:47.732Z,21.80
2019-05-20T20:59:31.186Z,21.43
2019-05-20T21:02:21.581Z,22.93
2019-05-20T21:08:27.736Z,23.83
2019-05-20T21:11:10.699Z,24.23
2019-05-20T21:14:01.121Z,24.37
2019-05-20T21:16:43.928Z,25.37
2019-05-20T21:19:34.375Z,25.13
2019-05-20T21:22:16.976Z,26.07
2019-05-20T21:25:07.597Z,25.33
2019-05-20T21:27:50.134Z,26.50
2019-05-20T21:30:40.592Z,26.17
2019-05-20T21:33:23.755Z,27.10
2019-05-20T21:36:14.221Z,29.30
2019-05-20T21:38:57.128Z,27.93
2019-05-20T21:41:47.576Z,29.70
2019-05-20T21:44:30.690Z,30.30
2019-05-20T21:47:21.214Z,31.73
2019-05-20T21:50:04.483Z,33.53
2019-05-20T21:52:54.934Z,32.13
2019-05-20T21:55:38.776Z,32.07
2019-05-20T21:58:29.263Z,31.47
2019-05-20T22:01:12.861Z,32.43
2019-05-20T22:04:03.334Z,33.60
2019-05-20T22:06:53.164Z,33.00
2019-05-20T22:09:31.303Z,34.00
2019-05-20T22:12:21.719Z,33.13
2019-05-20T22:15:12.526Z,33.77
2019-05-20T22:18:02.975Z,33.53
2019-05-20T22:20:46.223Z,32.87
2019-05-20T22:26:43.235Z,30.83
2019-05-20T22:29:33.591Z,32.90
2019-05-20T22:32:16.612Z,31.27
2019-05-20T22:34:59.839Z,31.33
2019-05-20T22:37:50.353Z,31.10
2019-05-20T22:40:33.762Z,31.23
2019-05-20T22:43:25.159Z,30.17
2019-05-20T22:46:08.485Z,31.53
2019-05-20T22:48:58.970Z,30.57
2019-05-20T22:51:42.003Z,29.83
2019-05-20T22:54:32.443Z,29.33
2019-05-20T22:57:15.100Z,28.40
2019-05-20T23:00:05.541Z,29.23
2019-05-20T23:02:48.778Z,28.03
2019-05-20T23:05:39.128Z,27.83
2019-05-20T23:08:22.874Z,28.83
2019-05-20T23:11:13.203Z,28.97
2019-05-20T23:13:56.035Z,27.83
2019-05-20T23:16:46.394Z,25.77
2019-05-20T23:19:29.455Z,25.70
2019-05-20T23:22:19.896Z,25.83
2019-05-20T23:25:02.487Z,26.07
2019-05-20T23:27:52.920Z,25.67
2019-05-20T23:30:43.360Z,24.67
2019-05-20T23:33:26.653Z,25.07
2019-05-20T23:36:09.387Z,23.13
2019-05-20T23:39:19.706Z,23.37
2019-05-20T23:42:23.121Z,21.77
2019-05-20T23:45:13.851Z,21.00
2019-05-20T23:47:56.873Z,19.97
2019-05-20T23:50:47.309Z,19.10
2019-05-20T23:53:30.224Z,17.73
2019-05-20T23:56:20.662Z,17.23
2019-05-20T23:59:03.770Z,16.67
